createdAt,value
2024-01-09T00:01:46.608Z,-2.88
2024-01-09T00:04:13.712Z,-2.86
2024-01-09T00:06:41.018Z,-2.86
2024-01-09T00:09:08.148Z,-2.95
2024-01-09T00:11:35.290Z,-2.85
2024-01-09T00:14:02.312Z,-2.88
2024-01-09T00:16:29.370Z,-2.80
2024-01-09T00:18:56.543Z,-2.84
2024-01-09T00:21:24.386Z,-2.87
2024-01-09T00:23:51.673Z,-2.86
2024-01-09T00:26:21.142Z,-2.82
2024-01-09T00:28:48.252Z,-2.88
2024-01-09T00:31:15.224Z,-2.92
2024-01-09T00:33:42.601Z,-2.95
2024-01-09T00:36:09.799Z,-2.93
2024-01-09T00:38:36.897Z,-2.88
2024-01-09T00:41:04.190Z,-2.94
2024-01-09T00:43:31.203Z,-2.98
2024-01-09T00:45:58.197Z,-2.96
2024-01-09T00:48:25.550Z,-3.06
2024-01-09T00:50:52.624Z,-3.09
2024-01-09T00:53:19.683Z,-2.99
2024-01-09T00:55:46.800Z,-3.07
2024-01-09T00:58:13.757Z,-3.13
2024-01-09T01:00:40.800Z,-3.08
2024-01-09T01:03:07.936Z,-3.17
2024-01-09T01:05:35.158Z,-3.15
2024-01-09T01:08:02.401Z,-3.13
2024-01-09T01:10:29.514Z,-3.07
2024-01-09T01:12:56.434Z,-3.18
2024-01-09T01:15:24.753Z,-3.12
2024-01-09T01:17:52.291Z,-3.13
2024-01-09T01:20:19.448Z,-3.10
2024-01-09T01:22:46.457Z,-3.07
2024-01-09T01:25:13.877Z,-3.14
2024-01-09T01:27:40.944Z,-3.21
2024-01-09T01:30:08.599Z,-3.27
2024-01-09T01:32:35.820Z,-3.32
2024-01-09T01:35:02.837Z,-3.20
2024-01-09T01:37:30.041Z,-3.17
2024-01-09T01:39:57.177Z,-3.19
2024-01-09T01:42:24.118Z,-3.26
2024-01-09T01:44:50.992Z,-3.20
2024-01-09T01:47:18.842Z,-3.17
2024-01-09T01:49:45.850Z,-3.26
2024-01-09T01:52:13.173Z,-3.24
2024-01-09T01:54:42.168Z,-3.28
2024-01-09T01:57:09.900Z,-3.28
2024-01-09T01:59:42.008Z,-3.34
2024-01-09T02:02:09.357Z,-3.30
2024-01-09T02:04:36.424Z,-3.41
2024-01-09T02:07:03.593Z,-3.35
2024-01-09T02:09:30.705Z,-3.40
2024-01-09T02:11:57.789Z,-3.36
2024-01-09T02:14:24.991Z,-3.35
2024-01-09T02:16:52.139Z,-3.31
2024-01-09T02:19:19.217Z,-3.36
2024-01-09T02:21:46.526Z,-3.37
2024-01-09T02:24:13.551Z,-3.31
2024-01-09T02:26:59.992Z,-3.24
2024-01-09T02:29:34.223Z,-3.21
2024-01-09T02:32:01.695Z,-3.26
2024-01-09T02:34:29.761Z,-3.27
2024-01-09T02:36:56.970Z,-3.26
2024-01-09T02:39:23.939Z,-3.37
2024-01-09T02:41:52.157Z,-3.28
2024-01-09T02:44:19.887Z,-3.33
2024-01-09T02:46:47.115Z,-3.33
2024-01-09T02:49:14.124Z,-3.27
2024-01-09T02:51:41.311Z,-3.32
2024-01-09T02:54:08.286Z,-3.35
2024-01-09T02:56:38.347Z,-3.35
2024-01-09T02:59:05.662Z,-3.30
2024-01-09T03:01:33.264Z,-3.33
2024-01-09T03:04:00.446Z,-3.42
2024-01-09T03:06:27.816Z,-3.38
2024-01-09T03:08:55.247Z,-3.36
2024-01-09T03:11:22.265Z,-3.30
2024-01-09T03:13:49.411Z,-3.32
2024-01-09T03:16:16.245Z,-3.31
2024-01-09T03:18:45.480Z,-3.36
2024-01-09T03:21:12.819Z,-3.42
2024-01-09T03:23:39.835Z,-3.40
2024-01-09T03:26:06.889Z,-3.34
2024-01-09T03:28:34.039Z,-3.38
2024-01-09T03:31:01.081Z,-3.37
2024-01-09T03:33:28.196Z,-3.41
2024-01-09T03:35:55.567Z,-3.35
2024-01-09T03:38:22.601Z,-3.40
2024-01-09T03:40:49.540Z,-3.43
2024-01-09T03:43:16.414Z,-3.44
2024-01-09T03:45:43.476Z,-3.50
2024-01-09T03:48:10.749Z,-3.51
2024-01-09T03:50:37.907Z,-3.45
2024-01-09T03:53:05.066Z,-3.47
2024-01-09T03:55:32.050Z,-3.53
2024-01-09T03:57:59.001Z,-3.56
2024-01-09T04:00:25.989Z,-3.60
2024-01-09T04:02:52.935Z,-3.59
2024-01-09T04:05:20.101Z,-3.64
2024-01-09T04:07:47.260Z,-3.61
2024-01-09T04:10:14.253Z,-3.65
2024-01-09T04:12:41.188Z,-3.76
2024-01-09T04:15:08.756Z,-3.77
2024-01-09T04:17:35.839Z,-3.76
2024-01-09T04:20:04.897Z,-3.84
2024-01-09T04:22:32.314Z,-3.85
2024-01-09T04:24:59.337Z,-3.79
2024-01-09T04:27:26.398Z,-3.78
2024-01-09T04:29:53.735Z,-3.91
2024-01-09T04:32:20.825Z,-3.98
2024-01-09T04:34:48.062Z,-3.94
2024-01-09T04:37:15.196Z,-3.89
2024-01-09T04:39:42.185Z,-3.93
2024-01-09T04:42:09.151Z,-3.93
2024-01-09T04:44:36.320Z,-3.98
2024-01-09T04:47:03.465Z,-3.96
2024-01-09T04:49:30.892Z,-4.07
2024-01-09T04:51:58.065Z,-4.04
2024-01-09T04:54:24.942Z,-3.93
2024-01-09T04:56:52.102Z,-4.01
2024-01-09T04:59:19.266Z,-3.99
2024-01-09T05:01:49.888Z,-4.07
2024-01-09T05:04:16.920Z,-4.08
2024-01-09T05:06:44.100Z,-4.05
2024-01-09T05:09:11.911Z,-4.14
2024-01-09T05:11:39.203Z,-4.14
2024-01-09T05:14:06.283Z,-4.10
2024-01-09T05:16:33.256Z,-4.14
2024-01-09T05:19:00.277Z,-4.18
2024-01-09T05:21:27.944Z,-4.24
2024-01-09T05:23:54.916Z,-4.22
2024-01-09T05:26:22.178Z,-4.18
2024-01-09T05:28:49.378Z,-4.23
2024-01-09T05:31:16.406Z,-4.16
2024-01-09T05:33:43.555Z,-4.27
2024-01-09T05:36:10.937Z,-4.28
2024-01-09T05:38:37.924Z,-4.31
2024-01-09T05:41:05.083Z,-4.40
2024-01-09T05:43:32.269Z,-4.32
2024-01-09T05:45:59.057Z,-4.25
2024-01-09T05:48:26.474Z,-4.31
2024-01-09T05:50:54.285Z,-4.28
2024-01-09T05:53:21.315Z,-4.27
2024-01-09T05:55:48.401Z,-4.42
2024-01-09T05:58:15.549Z,-4.44
2024-01-09T06:00:42.507Z,-4.29
2024-01-09T06:03:09.901Z,-4.30
2024-01-09T06:05:37.350Z,-4.34
2024-01-09T06:08:04.639Z,-4.36
2024-01-09T06:10:31.658Z,-4.37
2024-01-09T06:12:58.716Z,-4.31
2024-01-09T06:15:25.575Z,-4.35
2024-01-09T06:17:55.375Z,-4.34
2024-01-09T06:20:23.906Z,-4.37
2024-01-09T06:22:50.969Z,-4.27
2024-01-09T06:25:17.826Z,-4.30
2024-01-09T06:27:44.901Z,-4.40
2024-01-09T06:30:12.358Z,-4.35
2024-01-09T06:32:39.600Z,-4.40
2024-01-09T06:35:07.209Z,-4.36
2024-01-09T06:37:34.705Z,-4.25
2024-01-09T06:40:01.733Z,-4.30
2024-01-09T06:42:28.807Z,-4.37
2024-01-09T06:44:55.870Z,-4.38
2024-01-09T06:47:23.612Z,-4.30
2024-01-09T06:49:54.689Z,-4.25
2024-01-09T06:52:22.428Z,-4.36
2024-01-09T06:54:49.334Z,-4.28
2024-01-09T06:57:16.323Z,-4.25
2024-01-09T06:59:47.252Z,-4.25
2024-01-09T07:02:14.513Z,-4.25
2024-01-09T07:04:41.959Z,-4.18
2024-01-09T07:07:11.322Z,-4.24
2024-01-09T07:09:40.781Z,-4.16
2024-01-09T07:12:09.597Z,-4.25
2024-01-09T07:14:37.922Z,-4.25
2024-01-09T07:17:05.656Z,-4.31
2024-01-09T07:19:32.682Z,-4.23
2024-01-09T07:22:00.097Z,-4.26
2024-01-09T07:24:27.396Z,-4.31
2024-01-09T07:26:54.489Z,-4.15
2024-01-09T07:29:21.509Z,-4.28
2024-01-09T07:31:49.230Z,-4.32
2024-01-09T07:34:16.386Z,-4.40
2024-01-09T07:36:44.381Z,-4.49
2024-01-09T07:39:12.478Z,-4.37
2024-01-09T07:41:39.759Z,-4.38
2024-01-09T07:44:08.154Z,-4.41
2024-01-09T07:46:35.688Z,-4.37
2024-01-09T07:49:02.763Z,-4.37
2024-01-09T07:51:29.867Z,-4.35
2024-01-09T07:53:57.031Z,-4.31
2024-01-09T07:56:24.206Z,-4.29
2024-01-09T07:58:51.200Z,-4.32
2024-01-09T08:01:19.062Z,-4.28
2024-01-09T08:03:46.123Z,-4.23
2024-01-09T08:06:17.361Z,-4.28
2024-01-09T08:08:47.265Z,-4.29
2024-01-09T08:11:17.961Z,-4.24
2024-01-09T08:13:45.396Z,-4.21
2024-01-09T08:16:12.387Z,-4.18
2024-01-09T08:18:39.636Z,-4.23
2024-01-09T08:21:07.886Z,-4.21
2024-01-09T08:23:36.665Z,-4.19
2024-01-09T08:26:03.922Z,-4.20
2024-01-09T08:28:31.066Z,-4.19
2024-01-09T08:30:58.072Z,-4.20
2024-01-09T08:33:27.257Z,-4.20
2024-01-09T08:35:55.664Z,-4.14
2024-01-09T08:38:22.978Z,-4.13
2024-01-09T08:40:54.804Z,-4.09
2024-01-09T08:43:21.986Z,-4.12
2024-01-09T08:45:50.054Z,-4.07
2024-01-09T08:48:18.875Z,-3.99
2024-01-09T08:50:46.176Z,-3.97
2024-01-09T08:53:13.192Z,-3.94
2024-01-09T08:55:40.217Z,-3.90
2024-01-09T08:58:07.847Z,-3.94
2024-01-09T09:00:35.068Z,-3.91
2024-01-09T09:03:02.369Z,-3.88
2024-01-09T09:05:29.648Z,-3.91
2024-01-09T09:07:56.737Z,-3.89
2024-01-09T09:10:23.737Z,-3.85
2024-01-09T09:12:51.308Z,-3.81
2024-01-09T09:15:18.580Z,-3.87
2024-01-09T09:17:45.657Z,-3.82
2024-01-09T09:20:13.452Z,-3.80
2024-01-09T09:22:43.356Z,-3.69
2024-01-09T09:25:10.935Z,-3.75
2024-01-09T09:27:38.080Z,-3.64
2024-01-09T09:30:05.799Z,-3.58
2024-01-09T09:32:35.109Z,-3.58
2024-01-09T09:35:02.551Z,-3.47
2024-01-09T09:37:29.726Z,-3.49
2024-01-09T09:39:56.690Z,-3.48
2024-01-09T09:42:25.750Z,-3.41
2024-01-09T09:44:54.154Z,-3.37
2024-01-09T09:47:22.831Z,-3.28
2024-01-09T09:49:50.580Z,-3.32
2024-01-09T09:52:19.482Z,-3.14
2024-01-09T09:54:47.392Z,-3.12
2024-01-09T09:57:15.559Z,-3.09
2024-01-09T09:59:44.402Z,-3.09
2024-01-09T10:02:22.335Z,-3.03
2024-01-09T10:04:53.432Z,-2.84
2024-01-09T10:07:22.102Z,-2.77
2024-01-09T10:09:53.797Z,-2.72
2024-01-09T10:12:24.018Z,-2.68
2024-01-09T10:15:13.766Z,-2.52
2024-01-09T10:17:42.361Z,-2.39
2024-01-09T10:20:12.115Z,-2.22
2024-01-09T10:22:40.422Z,-2.21
2024-01-09T10:25:12.373Z,-2.41
2024-01-09T10:27:42.885Z,-2.38
2024-01-09T10:30:11.616Z,-2.24
2024-01-09T10:32:43.915Z,-2.14
2024-01-09T10:35:12.668Z,-2.30
2024-01-09T10:37:39.887Z,-2.36
2024-01-09T10:40:07.709Z,-2.17
2024-01-09T10:42:45.818Z,-1.91
2024-01-09T10:45:13.184Z,-1.97
2024-01-09T10:47:40.935Z,-2.16
2024-01-09T10:50:11.093Z,-1.93
2024-01-09T10:52:38.913Z,-2.02
2024-01-09T10:55:07.770Z,-2.03
2024-01-09T10:57:35.005Z,-1.83
2024-01-09T11:00:02.705Z,-1.95
2024-01-09T11:02:36.447Z,-1.71
2024-01-09T11:05:05.726Z,-1.56
2024-01-09T11:07:37.151Z,-1.55
2024-01-09T11:10:08.352Z,-1.42
2024-01-09T11:12:39.138Z,-1.25
2024-01-09T11:15:10.912Z,-1.61
2024-01-09T11:17:39.652Z,-1.45
2024-01-09T11:20:10.913Z,-1.61
2024-01-09T11:22:38.054Z,-1.34
2024-01-09T11:25:17.136Z,-0.94
2024-01-09T11:27:49.092Z,-1.12
2024-01-09T11:30:24.427Z,-1.51
2024-01-09T11:32:51.931Z,-1.27
2024-01-09T11:35:20.648Z,-1.08
2024-01-09T11:37:56.589Z,-1.07
2024-01-09T11:40:23.665Z,-1.19
2024-01-09T11:42:52.061Z,-1.14
2024-01-09T11:45:26.626Z,-1.35
2024-01-09T11:47:57.339Z,-1.12
2024-01-09T11:50:25.181Z,-1.34
2024-01-09T11:52:52.362Z,-1.31
2024-01-09T11:55:20.124Z,-0.82
2024-01-09T11:57:47.187Z,-0.65
2024-01-09T12:00:14.490Z,-0.85
2024-01-09T12:02:42.091Z,-0.78
2024-01-09T12:05:09.921Z,-0.91
2024-01-09T12:07:39.803Z,-0.64
2024-01-09T12:10:16.941Z,-0.69
2024-01-09T12:12:53.109Z,-1.20
2024-01-09T12:15:21.056Z,-1.12
2024-01-09T12:17:58.179Z,-1.07
2024-01-09T12:20:25.444Z,-1.03
2024-01-09T12:22:52.794Z,-0.82
2024-01-09T12:25:20.002Z,-0.53
2024-01-09T12:27:47.057Z,-0.77
2024-01-09T12:30:15.701Z,-0.87
2024-01-09T12:32:43.177Z,-0.86
2024-01-09T12:35:10.862Z,-0.53
2024-01-09T12:37:38.721Z,-0.39
2024-01-09T12:40:11.314Z,-0.89
2024-01-09T12:42:38.492Z,-0.75
2024-01-09T12:45:06.100Z,-0.46
2024-01-09T12:47:33.350Z,-0.84
2024-01-09T12:50:04.586Z,-0.74
2024-01-09T12:52:33.612Z,-0.98
2024-01-09T12:55:04.837Z,-1.02
2024-01-09T12:57:33.249Z,-0.77
2024-01-09T13:00:00.864Z,-0.99
2024-01-09T13:02:28.972Z,-0.95
2024-01-09T13:04:56.034Z,-0.91
2024-01-09T13:07:23.080Z,-0.86
2024-01-09T13:09:50.091Z,-1.06
2024-01-09T13:12:18.004Z,-0.97
2024-01-09T13:14:45.823Z,-1.04
2024-01-09T13:17:12.999Z,-1.14
2024-01-09T13:19:40.269Z,-1.09
2024-01-09T13:24:37.821Z,-1.13
2024-01-09T13:27:05.806Z,-1.12
2024-01-09T13:32:03.485Z,-1.11
2024-01-09T13:34:30.918Z,-1.04
2024-01-09T13:36:58.891Z,-1.02
2024-01-09T13:39:29.947Z,-1.07
2024-01-09T13:41:57.186Z,-0.96
2024-01-09T13:44:24.572Z,-0.98
2024-01-09T13:46:53.341Z,-0.93
2024-01-09T13:49:20.420Z,-0.97
2024-01-09T13:51:53.388Z,-0.91
2024-01-09T13:54:26.996Z,-0.88
2024-01-09T13:56:54.702Z,-0.92
2024-01-09T13:59:23.515Z,-0.91
2024-01-09T14:01:51.408Z,-0.91
2024-01-09T14:04:19.331Z,-0.98
2024-01-09T14:06:47.529Z,-0.99
2024-01-09T14:09:14.856Z,-0.95
2024-01-09T14:11:42.457Z,-0.96
2024-01-09T14:14:09.569Z,-1.03
2024-01-09T14:16:36.682Z,-1.04
2024-01-09T14:19:04.630Z,-0.98
2024-01-09T14:21:33.814Z,-0.99
2024-01-09T14:24:01.220Z,-0.99
2024-01-09T14:26:28.455Z,-0.99
2024-01-09T14:28:56.387Z,-0.95
2024-01-09T14:31:24.053Z,-0.97
2024-01-09T14:33:51.427Z,-0.99
2024-01-09T14:36:18.542Z,-0.95
2024-01-09T14:38:46.132Z,-1.06
2024-01-09T14:41:13.718Z,-1.10
2024-01-09T14:43:42.858Z,-0.98
2024-01-09T14:46:16.724Z,-1.04
2024-01-09T14:48:44.024Z,-1.04
2024-01-09T14:51:11.089Z,-1.03
2024-01-09T14:53:38.191Z,-1.07
2024-01-09T14:56:05.622Z,-1.12
2024-01-09T14:58:32.667Z,-1.12
2024-01-09T15:01:00.206Z,-1.05
2024-01-09T15:03:30.739Z,-1.08
2024-01-09T15:05:57.819Z,-1.20
2024-01-09T15:08:25.642Z,-1.11
2024-01-09T15:10:52.725Z,-1.15
2024-01-09T15:13:19.876Z,-1.18
2024-01-09T15:15:47.004Z,-1.20
2024-01-09T15:18:14.125Z,-1.22
2024-01-09T15:20:41.360Z,-1.24
2024-01-09T15:23:13.645Z,-1.27
2024-01-09T15:25:41.118Z,-1.27
2024-01-09T15:28:08.284Z,-1.32
2024-01-09T15:30:35.438Z,-1.32
2024-01-09T15:33:08.578Z,-1.31
2024-01-09T15:35:36.972Z,-1.37
2024-01-09T15:38:08.037Z,-1.37
2024-01-09T15:40:35.156Z,-1.46
2024-01-09T15:43:02.291Z,-1.43
2024-01-09T15:45:29.438Z,-1.50
2024-01-09T15:47:58.495Z,-1.45
2024-01-09T15:50:26.042Z,-1.42
2024-01-09T15:52:53.281Z,-1.50
2024-01-09T15:55:21.232Z,-1.45
2024-01-09T15:57:48.439Z,-1.53
2024-01-09T16:00:16.173Z,-1.62
2024-01-09T16:02:44.717Z,-1.50
2024-01-09T16:05:12.795Z,-1.43
2024-01-09T16:07:40.112Z,-1.60
2024-01-09T16:10:08.225Z,-1.50
2024-01-09T16:12:35.664Z,-1.61
2024-01-09T16:15:02.888Z,-1.52
2024-01-09T16:17:30.623Z,-1.64
2024-01-09T16:19:59.190Z,-1.53
2024-01-09T16:22:26.285Z,-1.43
2024-01-09T16:24:53.743Z,-1.43
2024-01-09T16:27:20.821Z,-1.60
2024-01-09T16:29:47.804Z,-1.55
2024-01-09T16:32:15.292Z,-1.62
2024-01-09T16:34:42.612Z,-1.45
2024-01-09T16:37:10.717Z,-1.50
2024-01-09T16:39:37.737Z,-1.41
2024-01-09T16:42:05.429Z,-1.42
2024-01-09T16:44:32.393Z,-1.51
2024-01-09T16:47:01.230Z,-1.37
2024-01-09T16:49:28.443Z,-1.42
2024-01-09T16:51:55.463Z,-1.49
2024-01-09T16:54:22.414Z,-1.36
2024-01-09T16:56:50.977Z,-1.44
2024-01-09T16:59:19.643Z,-1.34
2024-01-09T17:01:47.396Z,-1.52
2024-01-09T17:04:14.537Z,-1.38
2024-01-09T17:06:42.019Z,-1.48
2024-01-09T17:09:09.388Z,-1.32
2024-01-09T17:11:40.970Z,-1.40
2024-01-09T17:14:08.307Z,-1.39
2024-01-09T17:16:36.113Z,-1.37
2024-01-09T17:19:03.255Z,-1.34
2024-01-09T17:21:30.213Z,-1.45
2024-01-09T17:23:57.302Z,-1.43
2024-01-09T17:26:24.342Z,-1.39
2024-01-09T17:28:51.298Z,-1.50
2024-01-09T17:31:18.783Z,-1.49
2024-01-09T17:33:45.853Z,-1.42
2024-01-09T17:36:12.944Z,-1.49
2024-01-09T17:38:40.074Z,-1.47
2024-01-09T17:41:07.587Z,-1.42
2024-01-09T17:43:34.718Z,-1.27
2024-01-09T17:46:01.756Z,-1.29
2024-01-09T17:48:29.552Z,-1.33
2024-01-09T17:50:57.340Z,-1.34
2024-01-09T17:53:24.771Z,-1.52
2024-01-09T17:55:51.867Z,-1.40
2024-01-09T17:58:18.948Z,-1.36
2024-01-09T18:00:46.076Z,-1.35
2024-01-09T18:03:13.135Z,-1.41
2024-01-09T18:05:40.376Z,-1.38
2024-01-09T18:08:07.809Z,-1.54
2024-01-09T18:10:34.912Z,-1.50
2024-01-09T18:13:02.609Z,-1.43
2024-01-09T18:15:29.714Z,-1.56
2024-01-09T18:17:56.915Z,-1.40
2024-01-09T18:20:23.967Z,-1.55
2024-01-09T18:22:51.080Z,-1.52
2024-01-09T18:25:18.219Z,-1.51
2024-01-09T18:27:45.231Z,-1.43
2024-01-09T18:30:13.345Z,-1.46
2024-01-09T18:32:42.001Z,-1.54
2024-01-09T18:35:09.789Z,-1.51
2024-01-09T18:37:37.430Z,-1.55
2024-01-09T18:40:09.655Z,-1.63
2024-01-09T18:42:37.134Z,-1.65
2024-01-09T18:45:05.480Z,-1.58
2024-01-09T18:47:35.267Z,-1.67
2024-01-09T18:50:02.358Z,-1.68
2024-01-09T18:52:29.631Z,-1.75
2024-01-09T18:54:56.925Z,-1.56
2024-01-09T18:57:24.873Z,-1.69
2024-01-09T18:59:52.531Z,-1.75
2024-01-09T19:02:19.818Z,-1.88
2024-01-09T19:04:47.190Z,-1.85
2024-01-09T19:07:14.305Z,-1.93
2024-01-09T19:09:43.912Z,-1.86
2024-01-09T19:12:11.053Z,-2.07
2024-01-09T19:14:38.228Z,-1.92
2024-01-09T19:17:05.317Z,-1.75
2024-01-09T19:19:32.613Z,-1.84
2024-01-09T19:22:01.247Z,-1.76
2024-01-09T19:24:28.499Z,-1.82
2024-01-09T19:26:56.319Z,-1.75
2024-01-09T19:29:24.751Z,-1.78
2024-01-09T19:31:51.982Z,-1.63
2024-01-09T19:34:19.180Z,-1.82
2024-01-09T19:36:50.049Z,-1.92
2024-01-09T19:39:17.539Z,-1.89
2024-01-09T19:41:44.582Z,-1.88
2024-01-09T19:44:12.884Z,-1.87
2024-01-09T19:46:44.224Z,-1.65
2024-01-09T19:49:12.521Z,-1.80
2024-01-09T19:51:43.078Z,-1.84
2024-01-09T19:54:13.206Z,-1.84
2024-01-09T19:56:43.560Z,-1.88
2024-01-09T19:59:12.362Z,-1.88
2024-01-09T20:01:45.223Z,-2.09
2024-01-09T20:04:13.666Z,-2.02
2024-01-09T20:06:41.289Z,-2.10
2024-01-09T20:09:12.344Z,-2.01
2024-01-09T20:11:39.784Z,-1.95
2024-01-09T20:14:06.783Z,-2.11
2024-01-09T20:16:34.460Z,-2.00
2024-01-09T20:19:01.762Z,-2.13
2024-01-09T20:21:30.425Z,-2.13
2024-01-09T20:23:57.832Z,-1.98
2024-01-09T20:26:33.087Z,-1.93
2024-01-09T20:29:00.645Z,-2.07
2024-01-09T20:31:30.229Z,-2.00
2024-01-09T20:33:57.657Z,-2.16
2024-01-09T20:36:25.333Z,-2.03
2024-01-09T20:38:53.443Z,-2.00
2024-01-09T20:41:20.785Z,-2.18
2024-01-09T20:43:48.400Z,-2.11
2024-01-09T20:46:15.417Z,-2.18
2024-01-09T20:48:42.686Z,-2.25
2024-01-09T20:51:10.687Z,-2.16
2024-01-09T20:53:39.232Z,-2.34
2024-01-09T20:56:07.003Z,-2.12
2024-01-09T20:58:35.341Z,-2.13
2024-01-09T21:01:02.903Z,-2.13
2024-01-09T21:03:30.188Z,-2.17
2024-01-09T21:05:57.328Z,-2.16
2024-01-09T21:08:24.661Z,-2.13
2024-01-09T21:10:52.998Z,-2.22
2024-01-09T21:13:21.014Z,-2.31
2024-01-09T21:15:50.624Z,-2.35
2024-01-09T21:18:17.837Z,-2.34
2024-01-09T21:20:45.023Z,-2.31
2024-01-09T21:23:13.595Z,-2.43
2024-01-09T21:25:45.919Z,-2.31
2024-01-09T21:28:13.470Z,-2.23
2024-01-09T21:30:40.795Z,-2.12
2024-01-09T21:33:11.020Z,-2.26
2024-01-09T21:35:39.401Z,-2.24
2024-01-09T21:38:06.716Z,-2.27
2024-01-09T21:40:43.932Z,-2.29
2024-01-09T21:43:15.927Z,-2.40
2024-01-09T21:45:43.029Z,-2.35
2024-01-09T21:48:10.155Z,-2.39
2024-01-09T21:50:38.218Z,-2.41
2024-01-09T21:53:06.027Z,-2.35
2024-01-09T21:55:33.204Z,-2.27
2024-01-09T21:58:00.371Z,-2.30
2024-01-09T22:00:27.396Z,-2.42
2024-01-09T22:02:54.475Z,-2.35
2024-01-09T22:05:21.822Z,-2.35
2024-01-09T22:07:49.672Z,-2.43
2024-01-09T22:10:16.808Z,-2.38
2024-01-09T22:12:44.150Z,-2.42
2024-01-09T22:15:11.947Z,-2.38
2024-01-09T22:17:38.967Z,-2.37
2024-01-09T22:20:08.139Z,-2.32
2024-01-09T22:22:35.424Z,-2.41
2024-01-09T22:25:02.484Z,-2.32
2024-01-09T22:27:29.549Z,-2.30
2024-01-09T22:29:57.524Z,-2.42
2024-01-09T22:32:24.724Z,-2.37
2024-01-09T22:34:51.909Z,-2.41
2024-01-09T22:37:18.974Z,-2.35
2024-01-09T22:39:46.621Z,-2.41
2024-01-09T22:42:13.773Z,-2.51
2024-01-09T22:44:40.859Z,-2.49
2024-01-09T22:47:10.343Z,-2.58
2024-01-09T22:49:37.843Z,-2.58
2024-01-09T22:52:05.331Z,-2.49
2024-01-09T22:54:33.657Z,-2.56
2024-01-09T22:57:00.991Z,-2.54
2024-01-09T22:59:28.095Z,-2.43
2024-01-09T23:01:55.174Z,-2.48
2024-01-09T23:04:22.584Z,-2.45
2024-01-09T23:06:50.146Z,-2.44
2024-01-09T23:09:17.543Z,-2.44
2024-01-09T23:11:44.777Z,-2.47
2024-01-09T23:14:12.471Z,-2.43
2024-01-09T23:16:39.623Z,-2.45
2024-01-09T23:19:06.896Z,-2.46
2024-01-09T23:21:34.446Z,-2.30
2024-01-09T23:24:01.457Z,-2.36
2024-01-09T23:26:28.738Z,-2.36
2024-01-09T23:28:55.984Z,-2.28
2024-01-09T23:31:23.120Z,-2.36
2024-01-09T23:33:50.358Z,-2.36
2024-01-09T23:36:17.845Z,-2.39
2024-01-09T23:38:44.907Z,-2.29
2024-01-09T23:41:14.594Z,-2.38
2024-01-09T23:43:42.814Z,-2.50
2024-01-09T23:46:13.158Z,-2.56
2024-01-09T23:48:40.233Z,-2.44
2024-01-09T23:51:09.427Z,-2.53
2024-01-09T23:53:37.593Z,-2.55
2024-01-09T23:56:04.972Z,-2.45
2024-01-09T23:58:35.350Z,-2.60
